sensor_id;sensor_type;location;lat;lon;timestamp;pressure;altitude;pressure_sealevel;temperature;humidity
32759;BME280;19125;52.360;9.974;2023-07-31T00:01:52;86528.59;;;-145.17;61.72
32759;BME280;19125;52.360;9.974;2023-07-31T00:04:17;86492.88;;;-145.17;61.75
32759;BME280;19125;52.360;9.974;2023-07-31T00:06:43;86536.53;;;-145.17;61.64
32759;BME280;19125;52.360;9.974;2023-07-31T00:09:08;86512.72;;;-145.17;61.55
32759;BME280;19125;52.360;9.974;2023-07-31T00:11:34;86510.72;;;-145.17;61.78
32759;BME280;19125;52.360;9.974;2023-07-31T00:13:59;86469.06;;;-145.17;61.72
32759;BME280;19125;52.360;9.974;2023-07-31T00:16:24;86463.09;;;-145.17;61.96
32759;BME280;19125;52.360;9.974;2023-07-31T00:18:50;86457.16;;;-145.17;61.99
32759;BME280;19125;52.360;9.974;2023-07-31T00:21:15;86484.94;;;-145.17;61.79
32759;BME280;19125;52.360;9.974;2023-07-31T00:23:40;86437.28;;;-145.17;62.31
32759;BME280;19125;52.360;9.974;2023-07-31T00:26:06;86427.38;;;-145.17;62.21
32759;BME280;19125;52.360;9.974;2023-07-31T00:28:31;86445.25;;;-145.17;62.43
32759;BME280;19125;52.360;9.974;2023-07-31T00:30:56;86437.28;;;-145.17;62.33
32759;BME280;19125;52.360;9.974;2023-07-31T00:33:22;86393.63;;;-145.17;62.55
32759;BME280;19125;52.360;9.974;2023-07-31T00:35:48;86377.75;;;-145.17;62.74
32759;BME280;19125;52.360;9.974;2023-07-31T00:38:14;86353.94;;;-145.17;62.84
32759;BME280;19125;52.360;9.974;2023-07-31T00:40:39;86330.13;;;-145.17;62.87
32759;BME280;19125;52.360;9.974;2023-07-31T00:43:04;86270.59;;;-145.17;62.98
32759;BME280;19125;52.360;9.974;2023-07-31T00:45:30;86278.53;;;-145.17;62.96
32759;BME280;19125;52.360;9.974;2023-07-31T00:47:56;86094.00;;;-145.17;63.17
32759;BME280;19125;52.360;9.974;2023-07-31T00:50:24;85990.81;;;-145.17;63.57
32759;BME280;19125;52.360;9.974;2023-07-31T00:52:50;85861.84;;;-145.17;63.61
32759;BME280;19125;52.360;9.974;2023-07-31T00:55:16;85707.06;;;-145.17;63.72
32759;BME280;19125;52.360;9.974;2023-07-31T00:57:42;85365.81;;;-145.17;63.73
32759;BME280;19125;52.360;9.974;2023-07-31T01:00:08;85161.47;;;-145.17;64.18
32759;BME280;19125;52.360;9.974;2023-07-31T01:02:35;84905.56;;;-145.17;64.26
32759;BME280;19125;52.360;9.974;2023-07-31T01:05:01;84633.78;;;-145.17;64.25
32759;BME280;19125;52.360;9.974;2023-07-31T01:07:58;84084.38;;;-145.17;64.41
32759;BME280;19125;52.360;9.974;2023-07-31T01:10:35;83604.41;;;-145.17;64.59
32759;BME280;19125;52.360;9.974;2023-07-31T01:13:03;82912.38;;;-145.17;64.78
32759;BME280;19125;52.360;9.974;2023-07-31T01:15:28;82147.09;;;-145.17;64.86
32759;BME280;19125;52.360;9.974;2023-07-31T01:17:54;81062.88;;;-145.17;65.24
32759;BME280;19125;52.360;9.974;2023-07-31T01:20:23;79768.94;;;-145.17;65.41
32759;BME280;19125;52.360;9.974;2023-07-31T01:26:12;75592.72;;;-145.17;65.91
32759;BME280;19125;52.360;9.974;2023-07-31T01:28:55;72747.72;;;-145.17;66.19
32759;BME280;19125;52.360;9.974;2023-07-31T01:31:24;68576.84;;;-145.17;66.28
32759;BME280;19125;52.360;9.974;2023-07-31T01:33:51;63506.53;;;-145.17;66.44
32759;BME280;19125;52.360;9.974;2023-07-31T01:36:18;60981.69;;;-145.17;66.72
32759;BME280;19125;52.360;9.974;2023-07-31T01:38:43;58206.19;;;-145.17;66.75
32759;BME280;19125;52.360;9.974;2023-07-31T01:41:08;56440.97;;;-145.17;67.26
32759;BME280;19125;52.360;9.974;2023-07-31T01:43:33;54424.56;;;-145.17;67.15
32759;BME280;19125;52.360;9.974;2023-07-31T01:45:59;52912.91;;;-145.17;67.16
32759;BME280;19125;52.360;9.974;2023-07-31T01:48:24;49891.34;;;-145.17;67.33
32759;BME280;19125;52.360;9.974;2023-07-31T01:50:49;48381.44;;;-145.17;67.67
32759;BME280;19125;52.360;9.974;2023-07-31T01:53:15;46872.09;;;-145.17;67.64
32759;BME280;19125;52.360;9.974;2023-07-31T01:55:40;44860.56;;;-145.17;67.73
32759;BME280;19125;52.360;9.974;2023-07-31T01:58:06;44357.84;;;-145.17;67.70
32759;BME280;19125;52.360;9.974;2023-07-31T02:00:31;45111.94;;;-145.17;67.75
32759;BME280;19125;52.360;9.974;2023-07-31T02:02:56;45363.34;;;-145.17;67.73
32759;BME280;19125;52.360;9.974;2023-07-31T02:05:21;45614.78;;;-145.17;67.74
32759;BME280;19125;52.360;9.974;2023-07-31T02:07:47;44609.19;;;-145.17;67.99
32759;BME280;19125;52.360;9.974;2023-07-31T02:10:12;44357.84;;;-145.17;67.87
32759;BME280;19125;52.360;9.974;2023-07-31T02:12:38;42850.03;;;-145.17;67.93
32759;BME280;19125;52.360;9.974;2023-07-31T02:15:04;42347.56;;;-145.17;68.01
32759;BME280;19125;52.360;9.974;2023-07-31T02:17:29;41342.81;;;-145.17;68.07
32759;BME280;19125;52.360;9.974;2023-07-31T02:19:55;40589.41;;;-145.17;68.40
32759;BME280;19125;52.360;9.974;2023-07-31T02:22:20;39334.09;;;-145.17;68.36
32759;BME280;19125;52.360;9.974;2023-07-31T02:24:45;38079.16;;;-145.17;68.41
32759;BME280;19125;52.360;9.974;2023-07-31T02:27:11;36824.63;;;-145.17;68.58
32759;BME280;19125;52.360;9.974;2023-07-31T02:29:36;34818.19;;;-145.17;68.77
32759;BME280;19125;52.360;9.974;2023-07-31T02:32:01;33314.06;;;-145.17;68.87
32759;BME280;19125;52.360;9.974;2023-07-31T02:34:27;32061.03;;;-145.17;68.93
32759;BME280;19125;52.360;9.974;2023-07-31T02:36:52;31309.41;;;-145.17;69.11
32759;BME280;19125;52.360;9.974;2023-07-31T02:39:17;30557.94;;;-145.17;69.06
32759;BME280;19125;52.360;9.974;2023-07-31T02:41:43;29055.44;;;-145.17;69.28
32759;BME280;19125;52.360;9.974;2023-07-31T02:44:08;28304.41;;;-145.17;69.42
32759;BME280;19125;52.360;9.974;2023-07-31T02:46:33;28304.41;;;-145.17;69.35
32759;BME280;19125;52.360;9.974;2023-07-31T02:48:59;27053.00;;;-145.17;69.65
32759;BME280;19125;52.360;9.974;2023-07-31T02:51:24;25551.84;;;-145.17;69.63
32759;BME280;19125;52.360;9.974;2023-07-31T02:53:49;24301.31;;;-145.17;69.71
32759;BME280;19125;52.360;9.974;2023-07-31T02:56:15;23801.22;;;-145.17;69.89
32759;BME280;19125;52.360;9.974;2023-07-31T02:58:40;22551.25;;;-145.17;69.73
32759;BME280;19125;52.360;9.974;2023-07-31T03:01:05;22051.38;;;-145.17;69.90
32759;BME280;19125;52.360;9.974;2023-07-31T03:03:31;21551.56;;;-145.17;69.90
32759;BME280;19125;52.360;9.974;2023-07-31T03:05:56;21051.81;;;-145.17;70.04
32759;BME280;19125;52.360;9.974;2023-07-31T03:08:21;19802.72;;;-145.17;70.12
32759;BME280;19125;52.360;9.974;2023-07-31T03:10:47;19552.97;;;-145.17;70.24
32759;BME280;19125;52.360;9.974;2023-07-31T03:13:12;19053.47;;;-145.17;70.08
32759;BME280;19125;52.360;9.974;2023-07-31T03:15:37;18554.03;;;-145.17;70.30
32759;BME280;19125;52.360;9.974;2023-07-31T03:18:02;18304.34;;;-145.17;70.21
32759;BME280;19125;52.360;9.974;2023-07-31T03:20:28;17555.38;;;-145.17;70.27
32759;BME280;19125;52.360;9.974;2023-07-31T03:22:53;16806.56;;;-145.17;70.49
32759;BME280;19125;52.360;9.974;2023-07-31T03:25:18;16307.41;;;-145.17;70.61
32759;BME280;19125;52.360;9.974;2023-07-31T03:27:44;15558.84;;;-145.17;70.64
32759;BME280;19125;52.360;9.974;2023-07-31T03:30:09;15309.34;;;-145.17;70.70
32759;BME280;19125;52.360;9.974;2023-07-31T03:32:35;14560.94;;;-145.17;71.04
32759;BME280;19125;52.360;9.974;2023-07-31T03:35:00;13812.69;;;-145.17;70.69
32759;BME280;19125;52.360;9.974;2023-07-31T03:37:25;13313.94;;;-145.17;70.76
32759;BME280;19125;52.360;9.974;2023-07-31T03:39:51;12565.94;;;-145.17;71.03
32759;BME280;19125;52.360;9.974;2023-07-31T03:42:16;12316.63;;;-145.17;71.04
32759;BME280;19125;52.360;9.974;2023-07-31T03:44:42;12067.34;;;-145.17;71.19
32759;BME280;19125;52.360;9.974;2023-07-31T03:47:07;11568.81;;;-145.17;71.17
32759;BME280;19125;52.360;9.974;2023-07-31T03:49:33;11568.81;;;-145.17;70.96
32759;BME280;19125;52.360;9.974;2023-07-31T03:51:58;11070.34;;;-145.17;71.19
32759;BME280;19125;52.360;9.974;2023-07-31T03:54:23;10571.94;;;-145.17;71.09
32759;BME280;19125;52.360;9.974;2023-07-31T03:56:49;10073.63;;;-145.17;71.40
32759;BME280;19125;52.360;9.974;2023-07-31T03:59:14;10073.63;;;-145.17;71.05
32759;BME280;19125;52.360;9.974;2023-07-31T04:01:39;9575.34;;;-145.17;71.17
32759;BME280;19125;52.360;9.974;2023-07-31T04:04:05;9575.34;;;-145.17;71.15
32759;BME280;19125;52.360;9.974;2023-07-31T04:06:30;9077.13;;;-145.17;71.38
32759;BME280;19125;52.360;9.974;2023-07-31T04:08:55;9077.13;;;-145.17;71.56
32759;BME280;19125;52.360;9.974;2023-07-31T04:11:21;8828.06;;;-145.17;71.38
32759;BME280;19125;52.360;9.974;2023-07-31T04:13:46;8329.94;;;-145.17;71.46
32759;BME280;19125;52.360;9.974;2023-07-31T04:16:11;8329.94;;;-145.17;71.50
32759;BME280;19125;52.360;9.974;2023-07-31T04:18:37;8828.06;;;-145.17;71.29
32759;BME280;19125;52.360;9.974;2023-07-31T04:21:03;9077.13;;;-145.17;71.21
32759;BME280;19125;52.360;9.974;2023-07-31T04:23:28;9824.47;;;-145.17;71.35
32759;BME280;19125;52.360;9.974;2023-07-31T04:25:53;10571.94;;;-145.17;71.21
32759;BME280;19125;52.360;9.974;2023-07-31T04:28:19;11070.34;;;-145.17;70.92
32759;BME280;19125;52.360;9.974;2023-07-31T04:30:44;11568.81;;;-145.17;70.87
32759;BME280;19125;52.360;9.974;2023-07-31T04:33:09;11818.06;;;-145.17;70.86
32759;BME280;19125;52.360;9.974;2023-07-31T04:35:35;12067.34;;;-145.17;70.81
32759;BME280;19125;52.360;9.974;2023-07-31T04:38:00;12316.63;;;-145.17;71.08
32759;BME280;19125;52.360;9.974;2023-07-31T04:40:26;12067.34;;;-145.17;70.93
32759;BME280;19125;52.360;9.974;2023-07-31T04:42:51;12815.25;;;-145.17;71.16
32759;BME280;19125;52.360;9.974;2023-07-31T04:45:16;12815.25;;;-145.17;71.04
32759;BME280;19125;52.360;9.974;2023-07-31T04:47:42;12815.25;;;-145.17;70.92
32759;BME280;19125;52.360;9.974;2023-07-31T04:50:07;12815.25;;;-145.17;70.78
32759;BME280;19125;52.360;9.974;2023-07-31T04:52:33;12565.94;;;-145.17;70.85
32759;BME280;19125;52.360;9.974;2023-07-31T04:54:58;12565.94;;;-145.17;70.98
32759;BME280;19125;52.360;9.974;2023-07-31T04:57:24;12565.94;;;-145.17;70.93
32759;BME280;19125;52.360;9.974;2023-07-31T04:59:49;12316.63;;;-145.17;71.03
32759;BME280;19125;52.360;9.974;2023-07-31T05:02:14;11818.06;;;-145.17;71.19
32759;BME280;19125;52.360;9.974;2023-07-31T05:04:40;11568.81;;;-145.17;70.94
32759;BME280;19125;52.360;9.974;2023-07-31T05:07:05;11568.81;;;-145.17;71.12
32759;BME280;19125;52.360;9.974;2023-07-31T05:09:30;11568.81;;;-145.17;71.04
32759;BME280;19125;52.360;9.974;2023-07-31T05:11:56;11319.56;;;-145.17;71.13
32759;BME280;19125;52.360;9.974;2023-07-31T05:14:21;11818.06;;;-145.17;71.16
32759;BME280;19125;52.360;9.974;2023-07-31T05:16:46;11818.06;;;-145.17;71.28
32759;BME280;19125;52.360;9.974;2023-07-31T05:19:12;12067.34;;;-145.17;71.08
32759;BME280;19125;52.360;9.974;2023-07-31T05:21:37;12067.34;;;-145.17;71.10
32759;BME280;19125;52.360;9.974;2023-07-31T05:24:03;11818.06;;;-145.17;71.25
32759;BME280;19125;52.360;9.974;2023-07-31T05:26:28;11818.06;;;-145.17;71.37
32759;BME280;19125;52.360;9.974;2023-07-31T05:28:53;11818.06;;;-145.17;71.52
32759;BME280;19125;52.360;9.974;2023-07-31T05:31:19;11568.81;;;-145.17;71.21
32759;BME280;19125;52.360;9.974;2023-07-31T05:33:45;11070.34;;;-145.17;71.30
32759;BME280;19125;52.360;9.974;2023-07-31T05:36:11;10821.13;;;-145.17;71.29
32759;BME280;19125;52.360;9.974;2023-07-31T05:38:36;9824.47;;;-145.17;71.42
32759;BME280;19125;52.360;9.974;2023-07-31T05:41:02;9077.13;;;-145.17;71.48
32759;BME280;19125;52.360;9.974;2023-07-31T05:43:27;9575.34;;;-145.17;71.66
32759;BME280;19125;52.360;9.974;2023-07-31T05:45:52;9575.34;;;-145.17;71.46
32759;BME280;19125;52.360;9.974;2023-07-31T05:48:18;9077.13;;;-145.17;71.63
32759;BME280;19125;52.360;9.974;2023-07-31T05:50:43;8828.06;;;-145.17;71.73
32759;BME280;19125;52.360;9.974;2023-07-31T05:53:09;8828.06;;;-145.17;71.38
32759;BME280;19125;52.360;9.974;2023-07-31T05:55:35;9077.13;;;-145.17;71.62
32759;BME280;19125;52.360;9.974;2023-07-31T05:58:01;9326.22;;;-145.17;71.63
32759;BME280;19125;52.360;9.974;2023-07-31T06:00:26;9575.34;;;-145.17;71.32
32759;BME280;19125;52.360;9.974;2023-07-31T06:02:53;10073.63;;;-145.17;71.29
32759;BME280;19125;52.360;9.974;2023-07-31T06:05:18;10073.63;;;-145.17;71.29
32759;BME280;19125;52.360;9.974;2023-07-31T06:07:44;10322.78;;;-145.17;71.26
32759;BME280;19125;52.360;9.974;2023-07-31T06:10:09;10073.63;;;-145.17;71.42
32759;BME280;19125;52.360;9.974;2023-07-31T06:12:35;10073.63;;;-145.17;71.45
32759;BME280;19125;52.360;9.974;2023-07-31T06:15:02;9824.47;;;-145.17;71.27
32759;BME280;19125;52.360;9.974;2023-07-31T06:17:28;9575.34;;;-145.17;71.42
32759;BME280;19125;52.360;9.974;2023-07-31T06:19:53;9077.13;;;-145.17;71.63
32759;BME280;19125;52.360;9.974;2023-07-31T06:22:19;8080.91;;;-145.17;71.53
32759;BME280;19125;52.360;9.974;2023-07-31T06:24:44;7582.91;;;-145.17;71.73
32759;BME280;19125;52.360;9.974;2023-07-31T06:27:12;7333.91;;;-145.17;71.69
32759;BME280;19125;52.360;9.974;2023-07-31T06:29:38;7084.94;;;-145.17;71.58
32759;BME280;19125;52.360;9.974;2023-07-31T06:32:03;7582.91;;;-145.17;71.38
32759;BME280;19125;52.360;9.974;2023-07-31T06:34:29;8329.94;;;-145.17;71.39
32759;BME280;19125;52.360;9.974;2023-07-31T06:36:55;9824.47;;;-145.17;71.11
32759;BME280;19125;52.360;9.974;2023-07-31T06:39:21;11568.81;;;-145.17;71.09
32759;BME280;19125;52.360;9.974;2023-07-31T06:41:46;12067.34;;;-145.17;71.01
32759;BME280;19125;52.360;9.974;2023-07-31T06:44:12;13812.69;;;-145.17;70.76
32759;BME280;19125;52.360;9.974;2023-07-31T06:46:37;13563.31;;;-145.17;71.08
32759;BME280;19125;52.360;9.974;2023-07-31T06:49:02;14560.94;;;-145.17;70.62
32759;BME280;19125;52.360;9.974;2023-07-31T06:51:28;14062.09;;;-145.17;70.65
32759;BME280;19125;52.360;9.974;2023-07-31T06:53:53;14062.09;;;-145.17;70.72
32759;BME280;19125;52.360;9.974;2023-07-31T06:56:19;13812.69;;;-145.17;70.94
32759;BME280;19125;52.360;9.974;2023-07-31T06:58:44;13313.94;;;-145.17;70.99
32759;BME280;19125;52.360;9.974;2023-07-31T07:01:09;12815.25;;;-145.17;71.21
32759;BME280;19125;52.360;9.974;2023-07-31T07:03:35;12316.63;;;-145.17;71.19
32759;BME280;19125;52.360;9.974;2023-07-31T07:06:00;11818.06;;;-145.17;71.40
32759;BME280;19125;52.360;9.974;2023-07-31T07:08:26;11070.34;;;-145.17;71.41
32759;BME280;19125;52.360;9.974;2023-07-31T07:10:51;10571.94;;;-145.17;71.37
32759;BME280;19125;52.360;9.974;2023-07-31T07:13:16;10073.63;;;-145.17;71.34
32759;BME280;19125;52.360;9.974;2023-07-31T07:15:47;9326.22;;;-145.17;71.49
32759;BME280;19125;52.360;9.974;2023-07-31T07:18:12;9575.34;;;-145.17;71.15
32759;BME280;19125;52.360;9.974;2023-07-31T07:20:39;10322.78;;;-145.17;71.31
32759;BME280;19125;52.360;9.974;2023-07-31T07:23:04;10821.13;;;-145.17;71.20
32759;BME280;19125;52.360;9.974;2023-07-31T07:25:29;11818.06;;;-145.17;71.11
32759;BME280;19125;52.360;9.974;2023-07-31T07:27:55;11818.06;;;-145.17;70.90
32759;BME280;19125;52.360;9.974;2023-07-31T07:30:20;12316.63;;;-145.17;71.00
32759;BME280;19125;52.360;9.974;2023-07-31T07:32:45;11818.06;;;-145.17;70.76
32759;BME280;19125;52.360;9.974;2023-07-31T07:35:11;12316.63;;;-145.17;70.65
32759;BME280;19125;52.360;9.974;2023-07-31T07:37:36;13313.94;;;-145.17;70.36
32759;BME280;19125;52.360;9.974;2023-07-31T07:40:02;14311.50;;;-145.17;70.49
32759;BME280;19125;52.360;9.974;2023-07-31T07:42:28;14560.94;;;-145.17;70.27
32759;BME280;19125;52.360;9.974;2023-07-31T07:44:54;17056.16;;;-145.17;69.84
32759;BME280;19125;52.360;9.974;2023-07-31T07:47:19;20052.50;;;-145.17;69.31
32759;BME280;19125;52.360;9.974;2023-07-31T07:49:44;23051.19;;;-145.17;68.91
32759;BME280;19125;52.360;9.974;2023-07-31T07:52:09;27303.25;;;-145.17;68.52
32759;BME280;19125;52.360;9.974;2023-07-31T07:54:35;30557.94;;;-145.17;68.20
32759;BME280;19125;52.360;9.974;2023-07-31T07:57:00;36824.63;;;-145.17;67.48
32759;BME280;19125;52.360;9.974;2023-07-31T07:59:25;45363.34;;;-145.17;66.80
32759;BME280;19125;52.360;9.974;2023-07-31T08:01:51;52912.91;;;-145.17;66.27
32759;BME280;19125;52.360;9.974;2023-07-31T08:04:16;59467.53;;;-145.17;66.03
32759;BME280;19125;52.360;9.974;2023-07-31T08:06:41;65111.03;;;-145.17;65.74
32759;BME280;19125;52.360;9.974;2023-07-31T08:09:07;72807.06;;;-145.17;65.31
32759;BME280;19125;52.360;9.974;2023-07-31T08:11:33;77497.13;;;-145.17;64.76
32759;BME280;19125;52.360;9.974;2023-07-31T08:13:59;81300.72;;;-145.17;64.47
32759;BME280;19125;52.360;9.974;2023-07-31T08:16:24;85054.34;;;-145.17;63.16
32759;BME280;19125;52.360;9.974;2023-07-31T08:18:49;86145.59;;;-145.17;62.65
32759;BME280;19125;52.360;9.974;2023-07-31T08:21:15;86377.75;;;-145.17;62.29
32759;BME280;19125;52.360;9.974;2023-07-31T08:23:40;86427.38;;;-145.17;62.31
32759;BME280;19125;52.360;9.974;2023-07-31T08:26:06;86528.59;;;-145.17;62.41
32759;BME280;19125;52.360;9.974;2023-07-31T08:28:31;86478.97;;;-145.17;62.45
32759;BME280;19125;52.360;9.974;2023-07-31T08:30:57;86498.81;;;-145.17;62.33
32759;BME280;19125;52.360;9.974;2023-07-31T08:33:22;86560.34;;;-145.17;62.06
32759;BME280;19125;52.360;9.974;2023-07-31T08:35:47;86564.31;;;-145.17;62.01
32759;BME280;19125;52.360;9.974;2023-07-31T08:38:13;86611.94;;;-145.17;62.12
32759;BME280;19125;52.360;9.974;2023-07-31T08:40:38;86600.03;;;-145.17;61.74
32759;BME280;19125;52.360;9.974;2023-07-31T08:43:04;86611.94;;;-145.17;61.63
32759;BME280;19125;52.360;9.974;2023-07-31T08:45:30;86619.88;;;-145.17;61.38
32759;BME280;19125;52.360;9.974;2023-07-31T08:47:56;86613.91;;;-145.17;61.30
32759;BME280;19125;52.360;9.974;2023-07-31T08:50:22;86532.56;;;-145.17;60.82
32759;BME280;19125;52.360;9.974;2023-07-31T08:52:49;86550.41;;;-145.17;60.62
32759;BME280;19125;52.360;9.974;2023-07-31T08:55:15;86570.25;;;-145.17;60.29
32759;BME280;19125;52.360;9.974;2023-07-31T08:57:41;86588.13;;;-145.17;60.41
32759;BME280;19125;52.360;9.974;2023-07-31T09:00:08;86639.72;;;-145.17;60.78
32759;BME280;19125;52.360;9.974;2023-07-31T09:05:07;86683.38;;;-145.17;61.83
32759;BME280;19125;52.360;9.974;2023-07-31T09:07:36;86675.44;;;-145.17;62.23
32759;BME280;19125;52.360;9.974;2023-07-31T09:10:03;86596.06;;;-145.17;62.42
32759;BME280;19125;52.360;9.974;2023-07-31T09:12:28;86615.91;;;-145.17;62.36
32759;BME280;19125;52.360;9.974;2023-07-31T09:14:54;86552.41;;;-145.17;61.58
32759;BME280;19125;52.360;9.974;2023-07-31T09:17:33;86588.13;;;-145.17;61.28
32759;BME280;19125;52.360;9.974;2023-07-31T09:20:19;86572.25;;;-145.17;61.05
32759;BME280;19125;52.360;9.974;2023-07-31T09:22:46;86580.19;;;-145.17;61.53
32759;BME280;19125;52.360;9.974;2023-07-31T09:25:20;86619.88;;;-145.17;61.97
32759;BME280;19125;52.360;9.974;2023-07-31T09:27:56;86611.94;;;-145.17;61.98
32759;BME280;19125;52.360;9.974;2023-07-31T09:30:22;86600.03;;;-145.17;62.25
32759;BME280;19125;52.360;9.974;2023-07-31T09:32:49;86576.22;;;-145.17;62.34
32759;BME280;19125;52.360;9.974;2023-07-31T09:35:22;86564.31;;;-145.17;62.48
32759;BME280;19125;52.360;9.974;2023-07-31T09:37:52;86508.75;;;-145.17;61.68
32759;BME280;19125;52.360;9.974;2023-07-31T09:42:56;86477.00;;;-145.17;60.61
32759;BME280;19125;52.360;9.974;2023-07-31T09:45:22;86471.03;;;-145.17;60.49
32759;BME280;19125;52.360;9.974;2023-07-31T09:47:48;86457.16;;;-145.17;60.46
32759;BME280;19125;52.360;9.974;2023-07-31T09:50:17;86488.91;;;-145.17;60.87
32759;BME280;19125;52.360;9.974;2023-07-31T09:52:42;86506.75;;;-145.17;61.28
32759;BME280;19125;52.360;9.974;2023-07-31T09:55:09;86532.56;;;-145.17;61.48
32759;BME280;19125;52.360;9.974;2023-07-31T09:57:43;86518.66;;;-145.17;61.61
32759;BME280;19125;52.360;9.974;2023-07-31T10:00:10;86578.19;;;-145.17;61.78
32759;BME280;19125;52.360;9.974;2023-07-31T10:02:36;86560.34;;;-145.17;62.05
32759;BME280;19125;52.360;9.974;2023-07-31T10:05:02;86592.09;;;-145.17;62.35
32759;BME280;19125;52.360;9.974;2023-07-31T10:07:30;86592.09;;;-145.17;62.42
32759;BME280;19125;52.360;9.974;2023-07-31T10:09:58;86600.03;;;-145.17;62.53
32759;BME280;19125;52.360;9.974;2023-07-31T10:12:26;86619.88;;;-145.17;62.39
32759;BME280;19125;52.360;9.974;2023-07-31T10:14:54;86582.16;;;-145.17;62.76
32759;BME280;19125;52.360;9.974;2023-07-31T10:17:21;86564.31;;;-145.17;62.72
32759;BME280;19125;52.360;9.974;2023-07-31T10:19:48;86576.22;;;-145.17;62.67
32759;BME280;19125;52.360;9.974;2023-07-31T10:22:14;86584.16;;;-145.17;62.64
32759;BME280;19125;52.360;9.974;2023-07-31T10:24:42;86602.00;;;-145.17;62.45
32759;BME280;19125;52.360;9.974;2023-07-31T10:27:08;86544.47;;;-145.17;62.51
32759;BME280;19125;52.360;9.974;2023-07-31T10:29:36;86548.44;;;-145.17;62.49
32759;BME280;19125;52.360;9.974;2023-07-31T10:32:02;86560.34;;;-145.17;62.61
32759;BME280;19125;52.360;9.974;2023-07-31T10:34:32;86584.16;;;-145.17;62.28
32759;BME280;19125;52.360;9.974;2023-07-31T10:37:21;86604.00;;;-145.17;61.98
32759;BME280;19125;52.360;9.974;2023-07-31T10:42:27;86478.97;;;-145.17;61.44
32759;BME280;19125;52.360;9.974;2023-07-31T10:44:57;86437.28;;;-145.17;60.78
32759;BME280;19125;52.360;9.974;2023-07-31T10:47:22;86389.66;;;-145.17;60.07
32759;BME280;19125;52.360;9.974;2023-07-31T10:49:48;86304.34;;;-145.17;59.78
32759;BME280;19125;52.360;9.974;2023-07-31T10:52:14;86318.22;;;-145.17;59.63
32759;BME280;19125;52.360;9.974;2023-07-31T10:54:45;86185.28;;;-145.17;59.22
32759;BME280;19125;52.360;9.974;2023-07-31T10:57:21;86088.03;;;-145.17;58.40
32759;BME280;19125;52.360;9.974;2023-07-31T10:59:47;85961.03;;;-145.17;57.50
32759;BME280;19125;52.360;9.974;2023-07-31T11:02:28;85909.44;;;-145.17;57.02
32759;BME280;19125;52.360;9.974;2023-07-31T11:05:06;85909.44;;;-145.17;57.18
32759;BME280;19125;52.360;9.974;2023-07-31T11:07:48;85842.00;;;-145.17;56.48
32759;BME280;19125;52.360;9.974;2023-07-31T11:10:22;85750.72;;;-145.17;55.98
32759;BME280;19125;52.360;9.974;2023-07-31T11:12:48;85730.88;;;-145.17;55.36
32759;BME280;19125;52.360;9.974;2023-07-31T11:15:15;85631.66;;;-145.17;55.05
32759;BME280;19125;52.360;9.974;2023-07-31T11:17:40;85639.59;;;-145.17;54.53
32759;BME280;19125;52.360;9.974;2023-07-31T11:20:07;85619.75;;;-145.17;54.33
32759;BME280;19125;52.360;9.974;2023-07-31T11:22:35;85605.88;;;-145.17;54.24
32759;BME280;19125;52.360;9.974;2023-07-31T11:25:03;85627.69;;;-145.17;54.32
32759;BME280;19125;52.360;9.974;2023-07-31T11:27:29;85584.06;;;-145.17;53.68
32759;BME280;19125;52.360;9.974;2023-07-31T11:30:00;85582.06;;;-145.17;53.79
32759;BME280;19125;52.360;9.974;2023-07-31T11:32:26;85584.06;;;-145.17;53.62
32759;BME280;19125;52.360;9.974;2023-07-31T11:34:55;85609.84;;;-145.17;53.98
32759;BME280;19125;52.360;9.974;2023-07-31T11:37:20;85572.16;;;-145.17;54.29
32759;BME280;19125;52.360;9.974;2023-07-31T11:39:59;85607.84;;;-145.17;54.22
32759;BME280;19125;52.360;9.974;2023-07-31T11:42:25;85649.53;;;-145.17;54.08
32759;BME280;19125;52.360;9.974;2023-07-31T11:44:50;85667.38;;;-145.17;54.77
32759;BME280;19125;52.360;9.974;2023-07-31T11:47:16;85667.38;;;-145.17;54.83
32759;BME280;19125;52.360;9.974;2023-07-31T11:49:42;85683.25;;;-145.17;55.29
32759;BME280;19125;52.360;9.974;2023-07-31T11:52:08;85760.63;;;-145.17;55.46
32759;BME280;19125;52.360;9.974;2023-07-31T11:54:34;85810.25;;;-145.17;55.99
32759;BME280;19125;52.360;9.974;2023-07-31T11:56:59;85820.16;;;-145.17;56.29
32759;BME280;19125;52.360;9.974;2023-07-31T11:59:26;85738.81;;;-145.17;55.44
32759;BME280;19125;52.360;9.974;2023-07-31T12:01:52;85687.22;;;-145.17;55.00
32759;BME280;19125;52.360;9.974;2023-07-31T12:04:19;85629.69;;;-145.17;54.49
32759;BME280;19125;52.360;9.974;2023-07-31T12:06:46;85580.09;;;-145.17;53.93
32759;BME280;19125;52.360;9.974;2023-07-31T12:09:14;85536.44;;;-145.17;53.89
32759;BME280;19125;52.360;9.974;2023-07-31T12:11:43;85520.56;;;-145.17;53.35
32759;BME280;19125;52.360;9.974;2023-07-31T12:14:30;85506.66;;;-145.17;53.37
32759;BME280;19125;52.360;9.974;2023-07-31T12:16:57;85476.91;;;-145.17;53.03
32759;BME280;19125;52.360;9.974;2023-07-31T12:19:25;85441.19;;;-145.17;52.59
32759;BME280;19125;52.360;9.974;2023-07-31T12:21:53;85433.25;;;-145.17;52.51
32759;BME280;19125;52.360;9.974;2023-07-31T12:24:19;85476.91;;;-145.17;52.22
32759;BME280;19125;52.360;9.974;2023-07-31T12:26:45;85403.50;;;-145.17;51.81
32759;BME280;19125;52.360;9.974;2023-07-31T12:29:12;85405.50;;;-145.17;51.83
32759;BME280;19125;52.360;9.974;2023-07-31T12:31:41;85367.78;;;-145.17;52.03
32759;BME280;19125;52.360;9.974;2023-07-31T12:34:15;85330.09;;;-145.17;51.55
32759;BME280;19125;52.360;9.974;2023-07-31T12:36:43;85332.09;;;-145.17;51.05
32759;BME280;19125;52.360;9.974;2023-07-31T12:39:08;85342.00;;;-145.17;51.08
32759;BME280;19125;52.360;9.974;2023-07-31T12:41:34;85314.22;;;-145.17;51.05
32759;BME280;19125;52.360;9.974;2023-07-31T12:43:59;85359.84;;;-145.17;51.44
32759;BME280;19125;52.360;9.974;2023-07-31T12:46:24;85326.13;;;-145.17;51.43
32759;BME280;19125;52.360;9.974;2023-07-31T12:48:50;85330.09;;;-145.17;50.99